createdAt,value
2022-10-15T00:01:25.286Z,35.72
2022-10-15T00:03:52.567Z,37.55
2022-10-15T00:06:21.405Z,33.97
2022-10-15T00:08:50.449Z,31.38
2022-10-15T00:11:19.598Z,36.88
2022-10-15T00:13:47.697Z,33.90
2022-10-15T00:16:16.816Z,38.00
2022-10-15T00:18:44.229Z,32.25
2022-10-15T00:21:14.124Z,33.17
2022-10-15T00:23:41.411Z,34.45
2022-10-15T00:26:12.418Z,31.85
2022-10-15T00:28:39.829Z,31.90
2022-10-15T00:31:09.824Z,32.15
2022-10-15T00:33:38.398Z,29.58
2022-10-15T00:36:08.413Z,27.25
2022-10-15T00:38:35.717Z,32.08
2022-10-15T00:41:04.484Z,27.05
2022-10-15T00:43:46.079Z,29.80
2022-10-15T00:46:21.382Z,34.08
2022-10-15T00:48:51.037Z,31.20
2022-10-15T00:51:19.874Z,29.23
2022-10-15T00:53:48.617Z,31.30
2022-10-15T00:56:18.017Z,32.67
2022-10-15T00:58:48.490Z,34.65
2022-10-15T01:01:15.756Z,31.48
2022-10-15T01:03:43.812Z,31.13
2022-10-15T01:06:11.207Z,34.15
2022-10-15T01:08:38.775Z,33.72
2022-10-15T01:11:19.693Z,33.53
2022-10-15T01:14:00.778Z,31.20
2022-10-15T01:16:36.382Z,35.70
2022-10-15T01:19:14.030Z,30.45
2022-10-15T01:21:46.947Z,29.58
2022-10-15T01:24:43.561Z,32.78
2022-10-15T01:27:22.882Z,34.83
2022-10-15T01:30:22.641Z,29.85
2022-10-15T01:33:10.537Z,34.58
2022-10-15T01:35:47.266Z,37.20
2022-10-15T01:38:30.546Z,37.90
2022-10-15T01:41:01.254Z,34.88
2022-10-15T01:43:35.540Z,30.25
2022-10-15T01:46:07.162Z,35.05
2022-10-15T01:48:39.157Z,32.30
2022-10-15T01:51:07.764Z,31.33
2022-10-15T01:53:37.540Z,33.83
2022-10-15T01:56:08.579Z,28.15
2022-10-15T01:58:40.514Z,34.45
2022-10-15T02:01:08.217Z,31.73
2022-10-15T02:03:49.851Z,33.63
2022-10-15T02:06:23.880Z,28.15
2022-10-15T02:09:07.649Z,28.45
2022-10-15T02:11:45.410Z,31.15
2022-10-15T02:14:16.838Z,32.88
2022-10-15T02:16:47.263Z,31.88
2022-10-15T02:19:23.149Z,31.55
2022-10-15T02:24:26.075Z,32.50
2022-10-15T02:26:57.454Z,30.92
2022-10-15T02:29:28.454Z,33.03
2022-10-15T02:31:58.853Z,41.67
2022-10-15T02:34:31.524Z,33.67
2022-10-15T02:37:01.882Z,30.13
2022-10-15T02:39:30.051Z,32.88
2022-10-15T02:41:58.541Z,34.40
2022-10-15T02:44:26.712Z,28.40
2022-10-15T02:46:54.553Z,33.67
2022-10-15T02:49:22.383Z,36.40
2022-10-15T02:51:52.802Z,32.80
2022-10-15T02:54:20.121Z,36.47
2022-10-15T02:56:47.667Z,33.88
2022-10-15T02:59:14.675Z,34.80
2022-10-15T03:01:41.909Z,32.63
2022-10-15T03:04:09.441Z,35.30
2022-10-15T03:06:36.939Z,38.20
2022-10-15T03:09:06.753Z,36.40
2022-10-15T03:11:34.237Z,34.63
2022-10-15T03:14:01.475Z,30.67
2022-10-15T03:16:28.648Z,35.40
2022-10-15T03:18:55.827Z,35.58
2022-10-15T03:21:23.330Z,42.20
2022-10-15T03:23:50.324Z,33.83
2022-10-15T03:26:19.610Z,34.20
2022-10-15T03:28:46.642Z,37.13
2022-10-15T03:31:13.729Z,32.42
2022-10-15T03:33:41.161Z,36.78
2022-10-15T03:36:10.093Z,33.10
2022-10-15T03:38:37.642Z,39.58
2022-10-15T03:41:05.401Z,37.10
2022-10-15T03:43:37.411Z,31.45
2022-10-15T03:46:08.158Z,32.47
2022-10-15T03:48:35.601Z,32.92
2022-10-15T03:51:03.180Z,39.30
2022-10-15T03:53:30.729Z,37.03
2022-10-15T03:56:04.316Z,36.78
2022-10-15T03:58:34.061Z,35.42
2022-10-15T04:01:01.686Z,44.95
2022-10-15T04:03:29.136Z,35.70
2022-10-15T04:05:58.740Z,40.80
2022-10-15T04:08:28.954Z,35.53
2022-10-15T04:10:56.765Z,34.60
2022-10-15T04:13:23.985Z,38.03
2022-10-15T04:15:54.395Z,45.22
2022-10-15T04:18:22.003Z,42.95
2022-10-15T04:20:49.435Z,38.05
2022-10-15T04:23:18.565Z,52.28
2022-10-15T04:25:46.003Z,36.10
2022-10-15T04:28:13.095Z,34.47
2022-10-15T04:30:40.475Z,37.95
2022-10-15T04:33:09.815Z,36.58
2022-10-15T04:35:37.434Z,40.33
2022-10-15T04:38:05.260Z,37.22
2022-10-15T04:40:32.762Z,37.95
2022-10-15T04:43:00.557Z,35.88
2022-10-15T04:45:28.006Z,39.67
2022-10-15T04:47:56.920Z,45.03
2022-10-15T04:50:26.384Z,52.25
2022-10-15T04:52:53.905Z,39.78
2022-10-15T04:55:21.385Z,44.38
2022-10-15T04:57:49.357Z,43.78
2022-10-15T05:00:17.110Z,44.58
2022-10-15T05:02:44.777Z,50.15
2022-10-15T05:05:12.212Z,56.75
2022-10-15T05:07:41.580Z,47.30
2022-10-15T05:10:09.262Z,44.80
2022-10-15T05:12:36.659Z,42.47
2022-10-15T05:15:04.799Z,42.25
2022-10-15T05:17:32.630Z,50.00
2022-10-15T05:20:00.468Z,44.13
2022-10-15T05:22:27.957Z,46.08
2022-10-15T05:24:57.786Z,49.55
2022-10-15T05:27:25.607Z,46.10
2022-10-15T05:29:53.413Z,44.05
2022-10-15T05:34:50.961Z,49.50
2022-10-15T05:37:18.447Z,48.40
2022-10-15T05:39:45.728Z,53.33
2022-10-15T05:42:14.526Z,50.33
2022-10-15T05:44:41.626Z,48.47
2022-10-15T05:47:08.958Z,56.45
2022-10-15T05:49:36.172Z,61.90
2022-10-15T05:52:03.652Z,58.90
2022-10-15T05:54:31.213Z,67.70
2022-10-15T05:56:58.686Z,59.03
2022-10-15T05:59:27.331Z,61.92
2022-10-15T06:01:54.692Z,59.15
2022-10-15T06:04:22.226Z,64.75
2022-10-15T06:06:50.007Z,60.00
2022-10-15T06:09:17.607Z,60.53
2022-10-15T06:11:45.109Z,58.40
2022-10-15T06:14:13.043Z,49.17
2022-10-15T06:16:42.331Z,50.80
2022-10-15T06:19:09.582Z,53.72
2022-10-15T06:21:36.552Z,53.03
2022-10-15T06:24:06.334Z,51.47
2022-10-15T06:26:36.638Z,50.00
2022-10-15T06:29:04.212Z,50.67
2022-10-15T06:31:31.653Z,50.65
2022-10-15T06:34:01.114Z,50.55
2022-10-15T06:36:29.299Z,68.00
2022-10-15T06:38:56.472Z,63.00
2022-10-15T06:41:23.717Z,59.13
2022-10-15T06:46:23.173Z,51.28
2022-10-15T06:48:51.375Z,58.85
2022-10-15T06:51:19.805Z,60.10
2022-10-15T06:53:47.665Z,47.35
2022-10-15T06:56:15.200Z,49.95
2022-10-15T06:58:43.775Z,49.38
2022-10-15T07:01:11.145Z,51.72
2022-10-15T07:03:39.063Z,46.10
2022-10-15T07:06:08.800Z,47.45
2022-10-15T07:08:39.128Z,37.83
2022-10-15T07:11:08.063Z,41.50
2022-10-15T07:13:36.519Z,40.20
2022-10-15T07:16:07.575Z,40.30
2022-10-15T07:18:35.666Z,43.08
2022-10-15T07:21:02.912Z,43.55
2022-10-15T07:23:30.721Z,41.13
2022-10-15T07:26:01.742Z,42.47
2022-10-15T07:28:29.944Z,40.47
2022-10-15T07:31:01.826Z,40.95
2022-10-15T07:33:29.099Z,40.38
2022-10-15T07:35:57.125Z,44.45
2022-10-15T07:38:24.137Z,56.83
2022-10-15T07:40:51.770Z,51.55
2022-10-15T07:43:20.799Z,52.05
2022-10-15T07:45:48.826Z,52.40
2022-10-15T07:48:16.168Z,51.72
2022-10-15T07:50:43.575Z,47.10
2022-10-15T07:53:11.001Z,47.70
2022-10-15T07:55:38.574Z,49.10
2022-10-15T07:58:05.953Z,47.10
2022-10-15T08:00:35.324Z,50.58
2022-10-15T08:03:03.166Z,51.65
2022-10-15T08:05:31.347Z,49.50
2022-10-15T08:07:58.756Z,50.60
2022-10-15T08:10:25.873Z,49.45
2022-10-15T08:12:53.252Z,51.60
2022-10-15T08:15:21.104Z,43.38
2022-10-15T08:17:49.779Z,49.65
2022-10-15T08:20:16.994Z,51.55
2022-10-15T08:22:45.115Z,46.35
2022-10-15T08:25:12.327Z,52.28
2022-10-15T08:27:39.677Z,51.22
2022-10-15T08:30:07.696Z,48.78
2022-10-15T08:32:34.708Z,51.05
2022-10-15T08:35:04.135Z,65.38
2022-10-15T08:37:31.372Z,46.22
2022-10-15T08:39:58.871Z,44.92
2022-10-15T08:42:32.562Z,48.58
2022-10-15T08:45:04.801Z,49.20
2022-10-15T08:47:36.913Z,46.50
2022-10-15T08:50:17.565Z,51.28
2022-10-15T08:52:47.224Z,52.75
2022-10-15T08:55:17.243Z,47.17
2022-10-15T08:57:50.142Z,49.40
2022-10-15T09:00:21.329Z,48.28
2022-10-15T09:02:56.245Z,46.47
2022-10-15T09:05:44.800Z,51.90
2022-10-15T09:08:22.782Z,50.58
2022-10-15T09:10:53.907Z,44.80
2022-10-15T09:13:27.297Z,46.75
2022-10-15T09:16:00.120Z,52.70
2022-10-15T09:18:32.602Z,50.53
2022-10-15T09:21:04.600Z,50.50
2022-10-15T09:23:34.924Z,47.38
2022-10-15T09:26:07.980Z,50.00
2022-10-15T09:28:42.427Z,50.45
2022-10-15T09:31:13.720Z,51.42
2022-10-15T09:33:48.083Z,46.17
2022-10-15T09:36:30.727Z,56.53
2022-10-15T09:39:10.419Z,52.17
2022-10-15T09:41:51.723Z,53.95
2022-10-15T09:44:23.397Z,49.38
2022-10-15T09:46:52.062Z,49.47
2022-10-15T09:49:24.972Z,52.03
2022-10-15T09:52:03.361Z,51.05
2022-10-15T09:54:41.460Z,52.40
2022-10-15T09:57:12.201Z,51.42
2022-10-15T09:59:53.776Z,46.75
2022-10-15T10:02:23.129Z,51.45
2022-10-15T10:04:51.630Z,50.20
2022-10-15T10:07:36.492Z,51.13
2022-10-15T10:10:07.857Z,47.95
2022-10-15T10:12:36.641Z,53.83
2022-10-15T10:15:08.341Z,48.42
2022-10-15T10:17:35.894Z,49.83
2022-10-15T10:20:13.281Z,48.70
2022-10-15T10:22:48.960Z,51.10
2022-10-15T10:25:40.661Z,47.30
2022-10-15T10:28:18.099Z,43.80
2022-10-15T10:30:53.688Z,53.40
2022-10-15T10:33:27.542Z,51.85
2022-10-15T10:35:56.732Z,47.53
2022-10-15T10:38:31.568Z,51.47
2022-10-15T10:41:02.563Z,49.27
2022-10-15T10:43:30.450Z,45.97
2022-10-15T10:46:01.121Z,44.50
2022-10-15T10:48:37.965Z,45.63
2022-10-15T10:51:12.962Z,48.40
2022-10-15T10:54:00.405Z,42.97
2022-10-15T10:56:34.072Z,44.47
2022-10-15T10:59:10.865Z,46.40
2022-10-15T11:01:38.103Z,41.88
2022-10-15T11:04:12.944Z,40.65
2022-10-15T11:06:57.113Z,47.15
2022-10-15T11:09:56.129Z,44.22
2022-10-15T11:12:44.493Z,41.30
2022-10-15T11:15:32.743Z,40.80
2022-10-15T11:18:15.734Z,43.05
2022-10-15T11:20:58.824Z,39.15
2022-10-15T11:23:42.263Z,42.55
2022-10-15T11:26:37.129Z,42.63
2022-10-15T11:29:13.284Z,41.47
2022-10-15T11:32:02.058Z,38.95
2022-10-15T11:34:43.039Z,37.58
2022-10-15T11:37:24.301Z,41.13
2022-10-15T11:40:06.374Z,36.72
2022-10-15T11:42:42.714Z,39.75
2022-10-15T11:45:36.154Z,39.95
2022-10-15T11:48:09.913Z,43.15
2022-10-15T11:50:44.305Z,40.00
2022-10-15T11:53:48.985Z,41.97
2022-10-15T11:58:51.017Z,39.05
2022-10-15T12:01:25.284Z,38.60
2022-10-15T12:03:56.060Z,41.97
2022-10-15T12:06:27.335Z,36.95
2022-10-15T12:08:58.111Z,38.55
2022-10-15T12:11:36.043Z,36.60
2022-10-15T12:14:17.462Z,41.30
2022-10-15T12:16:54.705Z,38.83
2022-10-15T12:19:25.923Z,39.85
2022-10-15T12:22:06.603Z,41.13
2022-10-15T12:24:55.246Z,39.40
2022-10-15T12:27:25.926Z,39.75
2022-10-15T12:30:21.283Z,41.83
2022-10-15T12:32:49.783Z,38.75
2022-10-15T12:35:34.263Z,38.80
2022-10-15T12:38:18.713Z,40.13
2022-10-15T12:40:47.537Z,38.60
2022-10-15T12:43:17.897Z,42.95
2022-10-15T12:45:54.446Z,41.38
2022-10-15T12:48:34.090Z,41.75
2022-10-15T12:51:37.684Z,39.75
2022-10-15T12:54:36.668Z,37.97
2022-10-15T12:57:43.207Z,40.88
2022-10-15T13:00:46.734Z,39.88
2022-10-15T13:03:35.234Z,35.20
2022-10-15T13:06:34.332Z,38.97
2022-10-15T13:09:17.444Z,34.83
2022-10-15T13:11:48.083Z,35.42
2022-10-15T13:14:25.517Z,34.15
2022-10-15T13:16:53.945Z,36.92
2022-10-15T13:19:27.764Z,33.53
2022-10-15T13:21:56.664Z,35.97
2022-10-15T13:24:26.726Z,46.08
2022-10-15T13:26:55.287Z,38.75
2022-10-15T13:29:24.353Z,39.72
2022-10-15T13:31:53.443Z,34.80
2022-10-15T13:34:29.284Z,37.05
2022-10-15T13:36:59.374Z,41.88
2022-10-15T13:42:10.411Z,36.97
2022-10-15T13:44:37.637Z,38.33
2022-10-15T13:47:29.446Z,33.67
2022-10-15T13:50:18.405Z,34.60
2022-10-15T13:52:49.171Z,36.13
2022-10-15T13:55:22.772Z,37.47
2022-10-15T13:57:53.785Z,32.78
2022-10-15T14:00:25.119Z,34.78
2022-10-15T14:03:16.664Z,34.28
2022-10-15T14:05:48.025Z,37.55
2022-10-15T14:08:21.485Z,36.72
2022-10-15T14:10:50.733Z,35.67
2022-10-15T14:13:18.906Z,35.40
2022-10-15T14:15:53.503Z,34.60
2022-10-15T14:18:31.553Z,34.83
2022-10-15T14:21:01.841Z,34.17
2022-10-15T14:23:30.065Z,35.63
2022-10-15T14:25:59.467Z,30.92
2022-10-15T14:28:28.770Z,34.50
2022-10-15T14:30:57.165Z,34.85
2022-10-15T14:33:44.818Z,38.30
2022-10-15T14:36:24.932Z,34.72
2022-10-15T14:38:53.612Z,37.65
2022-10-15T14:41:28.824Z,33.08
2022-10-15T14:44:17.005Z,35.67
2022-10-15T14:46:47.675Z,38.25
2022-10-15T14:49:25.868Z,33.80
2022-10-15T14:52:01.852Z,33.50
2022-10-15T14:54:38.893Z,33.92
2022-10-15T14:57:19.009Z,34.55
2022-10-15T14:59:47.039Z,36.55
2022-10-15T15:02:17.125Z,33.92
2022-10-15T15:04:45.884Z,31.75
2022-10-15T15:07:18.146Z,32.63
2022-10-15T15:09:48.560Z,32.53
2022-10-15T15:12:21.762Z,33.83
2022-10-15T15:14:52.197Z,34.85
2022-10-15T15:17:21.474Z,34.38
2022-10-15T15:19:49.266Z,33.05
2022-10-15T15:22:24.329Z,41.60
2022-10-15T15:24:52.645Z,34.63
2022-10-15T15:27:26.537Z,35.80
2022-10-15T15:29:55.097Z,35.75
2022-10-15T15:32:24.299Z,38.00
2022-10-15T15:34:54.507Z,36.40
2022-10-15T15:37:26.266Z,34.75
2022-10-15T15:39:54.126Z,34.55
2022-10-15T15:42:23.785Z,31.58
2022-10-15T15:44:53.606Z,32.45
2022-10-15T15:47:21.284Z,40.03
2022-10-15T15:49:48.992Z,30.52
2022-10-15T15:52:17.438Z,36.05
2022-10-15T15:54:46.953Z,30.85
2022-10-15T15:57:14.784Z,32.85
2022-10-15T15:59:42.284Z,29.02
2022-10-15T16:02:11.965Z,35.20
2022-10-15T16:04:39.865Z,33.85
2022-10-15T16:07:10.274Z,29.67
2022-10-15T16:09:40.965Z,29.50
2022-10-15T16:12:10.425Z,33.90
2022-10-15T16:14:38.566Z,33.08
2022-10-15T16:17:06.083Z,35.60
2022-10-15T16:19:33.923Z,37.50
2022-10-15T16:22:01.747Z,30.98
2022-10-15T16:24:29.483Z,30.48
2022-10-15T16:26:56.817Z,34.80
2022-10-15T16:29:26.584Z,32.33
2022-10-15T16:31:54.327Z,31.55
2022-10-15T16:34:21.962Z,32.95
2022-10-15T16:36:50.101Z,30.42
2022-10-15T16:39:17.928Z,36.75
2022-10-15T16:41:45.116Z,36.33
2022-10-15T16:44:12.650Z,35.05
2022-10-15T16:46:42.404Z,37.30
2022-10-15T16:49:09.915Z,34.42
2022-10-15T16:51:39.849Z,33.35
2022-10-15T16:54:13.285Z,33.17
2022-10-15T16:56:40.452Z,32.03
2022-10-15T16:59:08.004Z,39.85
2022-10-15T17:01:36.217Z,37.75
2022-10-15T17:04:05.612Z,34.17
2022-10-15T17:06:33.453Z,34.38
2022-10-15T17:09:01.979Z,33.30
2022-10-15T17:11:32.047Z,30.35
2022-10-15T17:14:01.780Z,38.00
2022-10-15T17:16:33.859Z,33.63
2022-10-15T17:19:02.915Z,33.03
2022-10-15T17:21:34.072Z,39.70
2022-10-15T17:24:03.592Z,35.50
2022-10-15T17:26:33.340Z,32.28
2022-10-15T17:29:01.600Z,32.33
2022-10-15T17:31:29.744Z,36.97
2022-10-15T17:33:59.833Z,36.45
2022-10-15T17:36:29.724Z,36.65
2022-10-15T17:39:01.273Z,37.58
2022-10-15T17:41:31.114Z,36.53
2022-10-15T17:43:59.245Z,40.28
2022-10-15T17:46:28.851Z,38.28
2022-10-15T17:48:57.519Z,30.63
2022-10-15T17:51:27.452Z,37.13
2022-10-15T17:53:55.461Z,36.95
2022-10-15T17:56:27.288Z,35.80
2022-10-15T17:58:54.946Z,38.20
2022-10-15T18:01:33.221Z,44.13
2022-10-15T18:04:08.514Z,36.60
2022-10-15T18:06:37.533Z,38.78
2022-10-15T18:09:05.876Z,44.03
2022-10-15T18:11:35.994Z,47.22
2022-10-15T18:14:05.926Z,42.88
2022-10-15T18:16:34.193Z,40.05
2022-10-15T18:19:02.452Z,51.78
2022-10-15T18:21:30.337Z,47.20
2022-10-15T18:24:01.231Z,51.55
2022-10-15T18:26:31.271Z,44.40
2022-10-15T18:29:01.500Z,42.80
2022-10-15T18:31:29.945Z,41.63
2022-10-15T18:33:59.840Z,38.95
2022-10-15T18:36:29.788Z,40.83
2022-10-15T18:38:58.815Z,44.38
2022-10-15T18:41:28.812Z,44.90
2022-10-15T18:43:58.171Z,49.85
2022-10-15T18:46:29.263Z,47.58
2022-10-15T18:48:59.534Z,48.03
2022-10-15T18:51:28.812Z,44.33
2022-10-15T18:53:57.951Z,39.80
2022-10-15T18:56:26.428Z,45.42
2022-10-15T18:58:54.284Z,44.58
2022-10-15T19:01:29.662Z,38.33
2022-10-15T19:03:58.092Z,36.70
2022-10-15T19:06:28.185Z,38.83
2022-10-15T19:08:58.276Z,36.40
2022-10-15T19:11:26.572Z,36.35
2022-10-15T19:13:56.359Z,39.25
2022-10-15T19:16:23.592Z,35.35
2022-10-15T19:18:53.612Z,37.00
2022-10-15T19:21:21.292Z,34.17
2022-10-15T19:23:48.713Z,37.83
2022-10-15T19:26:16.672Z,38.35
2022-10-15T19:28:44.888Z,39.08
2022-10-15T19:31:20.283Z,36.97
2022-10-15T19:33:48.340Z,40.83
2022-10-15T19:36:24.972Z,40.95
2022-10-15T19:38:52.952Z,37.42
2022-10-15T19:41:21.143Z,39.42
2022-10-15T19:43:49.021Z,40.40
2022-10-15T19:46:16.552Z,40.00
2022-10-15T19:48:45.354Z,39.88
2022-10-15T19:51:12.685Z,41.13
2022-10-15T19:53:42.251Z,40.05
2022-10-15T19:56:11.792Z,40.00
2022-10-15T19:58:39.233Z,40.42
2022-10-15T20:01:07.743Z,38.33
2022-10-15T20:06:09.299Z,44.10
2022-10-15T20:08:37.004Z,42.78
2022-10-15T20:11:09.752Z,40.85
2022-10-15T20:13:37.819Z,42.05
2022-10-15T20:16:08.123Z,44.05
2022-10-15T20:18:36.644Z,44.22
2022-10-15T20:21:08.960Z,41.88
2022-10-15T20:23:37.793Z,39.58
2022-10-15T20:26:09.151Z,45.15
2022-10-15T20:28:37.665Z,41.58
2022-10-15T20:31:06.512Z,39.90
2022-10-15T20:33:35.968Z,37.60
2022-10-15T20:36:04.753Z,35.13
2022-10-15T20:38:32.945Z,35.65
2022-10-15T20:41:00.211Z,34.83
2022-10-15T20:43:29.183Z,35.10
2022-10-15T20:45:56.352Z,38.33
2022-10-15T20:48:26.731Z,39.13
2022-10-15T20:50:55.242Z,36.20
2022-10-15T20:53:24.644Z,37.55
2022-10-15T20:55:52.617Z,39.75
2022-10-15T20:58:20.333Z,39.40
2022-10-15T21:00:49.445Z,38.97
2022-10-15T21:03:17.583Z,39.30
2022-10-15T21:05:44.813Z,45.35
2022-10-15T21:08:12.330Z,41.08
2022-10-15T21:10:39.504Z,42.85
2022-10-15T21:13:07.352Z,41.72
2022-10-15T21:15:34.891Z,40.40
2022-10-15T21:18:04.651Z,38.22
2022-10-15T21:20:32.359Z,39.60
2022-10-15T21:22:59.682Z,37.63
2022-10-15T21:25:27.263Z,44.13
2022-10-15T21:27:54.851Z,39.80
2022-10-15T21:30:22.562Z,36.75
2022-10-15T21:32:50.382Z,36.35
2022-10-15T21:35:19.870Z,40.30
2022-10-15T21:37:47.350Z,36.20
2022-10-15T21:40:14.661Z,34.70
2022-10-15T21:42:41.772Z,40.33
2022-10-15T21:45:10.210Z,36.60
2022-10-15T21:47:37.494Z,44.80
2022-10-15T21:50:06.611Z,38.72
2022-10-15T21:52:35.691Z,34.92
2022-10-15T21:55:03.739Z,35.55
2022-10-15T21:57:31.061Z,38.25
2022-10-15T21:59:58.250Z,37.85
2022-10-15T22:02:26.152Z,38.88
2022-10-15T22:04:53.591Z,36.50
2022-10-15T22:07:21.784Z,31.75
2022-10-15T22:09:50.593Z,34.85
2022-10-15T22:12:21.169Z,34.42
2022-10-15T22:14:49.179Z,39.47
2022-10-15T22:17:16.622Z,36.55
2022-10-15T22:19:43.861Z,38.30
2022-10-15T22:22:10.965Z,37.25
2022-10-15T22:24:38.250Z,33.22
2022-10-15T22:27:08.355Z,38.03
2022-10-15T22:29:36.207Z,39.33
2022-10-15T22:32:03.690Z,36.15
2022-10-15T22:34:31.153Z,35.45
2022-10-15T22:36:58.644Z,37.50
2022-10-15T22:39:25.910Z,35.10
2022-10-15T22:41:53.750Z,41.00
2022-10-15T22:44:22.769Z,39.22
2022-10-15T22:46:50.396Z,33.10
2022-10-15T22:49:18.871Z,30.88
2022-10-15T22:51:46.433Z,33.17
2022-10-15T22:54:15.513Z,34.08
2022-10-15T22:56:43.291Z,40.08
2022-10-15T22:59:11.224Z,34.03
2022-10-15T23:01:40.757Z,33.70
2022-10-15T23:04:08.833Z,34.33
2022-10-15T23:06:37.930Z,34.90
2022-10-15T23:09:07.795Z,34.88
2022-10-15T23:11:36.710Z,31.55
2022-10-15T23:14:06.238Z,38.85
2022-10-15T23:16:35.945Z,34.05
2022-10-15T23:19:07.590Z,35.00
2022-10-15T23:21:38.247Z,34.30
2022-10-15T23:24:06.830Z,30.70
2022-10-15T23:26:36.204Z,33.40
2022-10-15T23:29:04.869Z,31.65
2022-10-15T23:31:35.217Z,37.20
2022-10-15T23:34:05.301Z,34.03
2022-10-15T23:36:33.822Z,36.28
2022-10-15T23:39:02.603Z,37.38
2022-10-15T23:41:30.562Z,39.25
2022-10-15T23:43:58.253Z,34.70
2022-10-15T23:46:26.064Z,34.88
2022-10-15T23:48:53.410Z,36.17
2022-10-15T23:51:24.944Z,39.55
2022-10-15T23:53:53.782Z,33.42
2022-10-15T23:56:21.843Z,31.73
2022-10-15T23:58:49.683Z,32.92
